Time;durP1;ratioP1;P1;durP2;ratioP2;P2;SDS_P1;SDS_P2;PMS_P1;PMS_P2;Temp;Humidity;BMP_temperature;BMP_pressure;BME280_temperature;BME280_humidity;BME280_pressure;Samples;Min_cycle;Max_cycle;Signal;HPM_P1;HPM_P2
2021/12/20 00:00:11;;;;;;;9.00;2.40;;;0.20;99.90;;;;;;5010449;28;20036;-55
2021/12/20 00:02:37;;;;;;;8.00;2.55;;;0.20;99.90;;;;;;5011948;28;20455;-56
2021/12/20 00:05:03;;;;;;;8.73;2.22;;;0.20;99.90;;;;;;5012858;28;20093;-61
2021/12/20 00:07:29;;;;;;;11.48;2.72;;;0.20;99.90;;;;;;5012257;28;20109;-59
2021/12/20 00:09:55;;;;;;;11.48;2.65;;;0.20;99.90;;;;;;5011884;28;20065;-58
2021/12/20 00:12:20;;;;;;;6.75;2.20;;;0.20;99.90;;;;;;5011986;28;20033;-56
2021/12/20 00:14:46;;;;;;;9.23;2.40;;;0.20;99.90;;;;;;5011931;28;20527;-56
2021/12/20 00:17:11;;;;;;;8.02;2.35;;;0.30;99.90;;;;;;5012086;28;20041;-57
2021/12/20 00:19:37;;;;;;;8.80;2.53;;;0.20;99.90;;;;;;5012173;28;20121;-54
2021/12/20 00:22:03;;;;;;;8.75;2.47;;;0.20;99.90;;;;;;5012188;28;20072;-56
2021/12/20 00:24:29;;;;;;;7.70;2.28;;;0.20;99.90;;;;;;5012471;28;20072;-55
2021/12/20 00:26:55;;;;;;;8.15;1.95;;;0.20;99.90;;;;;;5012310;28;20057;-55
2021/12/20 00:29:20;;;;;;;4.18;1.45;;;0.20;99.90;;;;;;5011310;28;20522;-56
2021/12/20 00:31:46;;;;;;;6.35;1.83;;;0.20;99.90;;;;;;5012238;28;20030;-58
2021/12/20 00:34:11;;;;;;;9.00;2.42;;;0.20;99.90;;;;;;5010533;28;20550;-55
2021/12/20 00:36:37;;;;;;;9.27;2.25;;;0.10;99.90;;;;;;5001255;28;20113;-56
2021/12/20 00:41:48;;;;;;;12.88;2.58;;;0.10;99.90;;;;;;5011937;28;20032;-58
2021/12/20 00:44:13;;;;;;;8.55;2.38;;;0.00;99.90;;;;;;5012181;28;20104;-57
2021/12/20 00:46:39;;;;;;;2.72;2.15;;;0.00;99.90;;;;;;5012319;28;20225;-57
2021/12/20 00:49:05;;;;;;;13.40;2.10;;;0.00;99.90;;;;;;5011008;28;20060;-56
2021/12/20 00:51:30;;;;;;;5.03;1.98;;;-0.10;99.90;;;;;;5011784;28;20503;-61
2021/12/20 00:53:56;;;;;;;9.40;2.13;;;-0.10;99.90;;;;;;5011954;28;20368;-58
2021/12/20 00:56:21;;;;;;;4.75;2.00;;;-0.10;99.90;;;;;;5010787;28;20058;-58
2021/12/20 00:58:47;;;;;;;7.53;2.28;;;-0.10;99.90;;;;;;5010828;28;20452;-58
2021/12/20 01:01:13;;;;;;;6.63;2.45;;;-0.20;99.90;;;;;;5011515;28;20054;-59
2021/12/20 01:03:38;;;;;;;6.78;1.75;;;-0.20;99.90;;;;;;5010723;28;20030;-60
2021/12/20 01:06:05;;;;;;;6.07;2.40;;;-0.20;99.90;;;;;;5011440;28;20496;-58
2021/12/20 01:08:35;;;;;;;4.85;2.53;;;-0.20;99.90;;;;;;5010567;28;20022;-60
2021/12/20 01:11:01;;;;;;;6.38;1.70;;;-0.30;99.90;;;;;;5011428;28;20499;-59
2021/12/20 01:13:32;;;;;;;5.63;2.03;;;-0.30;99.90;;;;;;5011092;28;20069;-60
2021/12/20 01:16:00;;;;;;;8.57;1.90;;;-0.30;99.90;;;;;;5011047;28;20484;-58
2021/12/20 01:18:26;;;;;;;7.43;1.55;;;-0.30;99.90;;;;;;5009243;28;20030;-55
2021/12/20 01:20:52;;;;;;;6.10;2.13;;;-0.30;99.90;;;;;;5010584;28;20056;-60
2021/12/20 01:23:18;;;;;;;8.13;2.22;;;-0.30;99.90;;;;;;5010914;28;20017;-59
2021/12/20 01:25:45;;;;;;;5.97;1.77;;;-0.30;99.90;;;;;;5010773;28;20022;-59
2021/12/20 01:28:10;;;;;;;6.78;2.28;;;-0.30;99.90;;;;;;5008738;28;20018;-58
2021/12/20 01:30:37;;;;;;;7.93;2.28;;;-0.40;99.90;;;;;;5002093;28;20083;-56
2021/12/20 01:33:07;;;;;;;4.28;1.70;;;-0.40;99.90;;;;;;4998511;28;20439;-58
2021/12/20 01:35:33;;;;;;;4.03;1.38;;;-0.40;99.90;;;;;;5009999;28;20030;-57
2021/12/20 01:37:58;;;;;;;8.23;2.10;;;-0.40;99.90;;;;;;5010105;28;20408;-59
2021/12/20 01:40:25;;;;;;;3.88;1.55;;;-0.40;99.90;;;;;;5010259;28;20308;-61
2021/12/20 01:42:55;;;;;;;4.00;1.58;;;-0.40;99.90;;;;;;5010277;28;20033;-58
2021/12/20 01:45:23;;;;;;;5.85;2.03;;;-0.40;99.90;;;;;;5010401;28;20030;-59
2021/12/20 01:47:53;;;;;;;10.80;2.58;;;-0.50;99.90;;;;;;5009816;28;20109;-62
2021/12/20 01:50:37;;;;;;;3.75;1.50;;;-0.50;99.90;;;;;;5010877;28;20492;-59
2021/12/20 01:53:03;;;;;;;4.95;1.58;;;-0.50;99.90;;;;;;5010583;28;20133;-59
2021/12/20 01:55:28;;;;;;;6.25;1.90;;;-0.50;99.90;;;;;;5010594;28;20117;-60
2021/12/20 01:57:54;;;;;;;7.65;2.42;;;-0.50;99.90;;;;;;5008944;28;20046;-57
2021/12/20 02:00:24;;;;;;;5.95;1.73;;;-0.60;99.90;;;;;;5006263;28;20172;-59
2021/12/20 02:02:57;;;;;;;5.15;1.77;;;-0.50;99.90;;;;;;5006862;28;20041;-59
2021/12/20 02:05:34;;;;;;;4.00;1.83;;;-0.60;99.90;;;;;;5008713;28;20503;-60
2021/12/20 02:08:00;;;;;;;;;;;-0.50;99.90;;;;;;5010248;28;20033;-58
2021/12/20 02:10:26;;;;;;;6.93;1.83;;;-0.60;99.90;;;;;;5010003;28;20359;-56
2021/12/20 02:12:52;;;;;;;3.92;1.73;;;-0.60;99.90;;;;;;5009483;28;20034;-59
2021/12/20 02:15:18;;;;;;;4.35;1.80;;;-0.60;99.90;;;;;;5010063;28;20068;-61
2021/12/20 02:17:44;;;;;;;13.43;3.38;;;-0.60;99.90;;;;;;5009979;28;20047;-60
2021/12/20 02:20:23;;;;;;;3.80;1.50;;;-0.60;99.90;;;;;;5007960;28;20034;-61
2021/12/20 02:22:49;;;;;;;5.07;1.48;;;-0.60;99.90;;;;;;4995709;28;20030;-58
2021/12/20 02:25:14;;;;;;;7.45;2.03;;;-0.60;99.90;;;;;;5009760;28;20123;-60
2021/12/20 02:27:40;;;;;;;10.25;2.00;;;-0.60;99.90;;;;;;5009805;28;20113;-62
2021/12/20 02:30:24;;;;;;;5.10;1.85;;;-0.60;99.90;;;;;;5009735;28;20072;-59
2021/12/20 02:38:23;;;;;;;4.75;2.33;;;-0.70;99.90;;;;;;5010236;28;20554;-57
2021/12/20 02:41:11;;;;;;;1.88;1.42;;;-0.70;99.90;;;;;;5008588;28;20037;-60
2021/12/20 02:43:40;;;;;;;6.47;1.73;;;-0.70;99.90;;;;;;5010046;28;20028;-60
2021/12/20 02:47:08;;;;;;;9.05;1.80;;;-0.80;99.90;;;;;;5009232;28;20141;-60
2021/12/20 02:49:14;;;;;;;6.93;1.90;;;-0.80;99.90;;;;;;5003670;28;20030;-60
2021/12/20 02:51:41;;;;;;;5.93;1.88;;;-0.80;99.90;;;;;;5007467;28;20417;-60
2021/12/20 02:54:09;;;;;;;3.42;1.63;;;-0.80;99.90;;;;;;5008146;28;20451;-59
2021/12/20 02:56:36;;;;;;;4.78;1.75;;;-0.80;99.90;;;;;;5010080;28;20456;-59
2021/12/20 02:59:02;;;;;;;4.20;1.75;;;-0.90;99.90;;;;;;5009390;28;20030;-58
2021/12/20 03:01:27;;;;;;;5.38;1.48;;;-0.90;99.90;;;;;;5009318;28;20048;-60
2021/12/20 03:03:55;;;;;;;5.07;1.40;;;-0.90;99.90;;;;;;5008391;28;20121;-59
2021/12/20 03:06:34;;;;;;;6.78;2.00;;;-0.90;99.90;;;;;;5008770;28;20088;-60
2021/12/20 03:09:00;;;;;;;5.82;1.80;;;-0.90;99.90;;;;;;5007792;28;20661;-60
2021/12/20 03:11:27;;;;;;;3.75;1.30;;;-0.90;99.90;;;;;;5009419;28;20108;-61
2021/12/20 03:14:04;;;;;;;5.53;1.83;;;-0.90;99.90;;;;;;5009721;28;20030;-59
2021/12/20 03:16:30;;;;;;;9.95;2.22;;;-0.90;99.90;;;;;;5013553;28;20040;-58
2021/12/20 03:18:55;;;;;;;4.28;1.77;;;-0.90;99.90;;;;;;5012997;28;20033;-61
2021/12/20 03:21:21;;;;;;;8.70;1.80;;;-1.00;99.90;;;;;;5013558;28;20077;-61
2021/12/20 03:23:47;;;;;;;4.95;1.33;;;-1.00;99.90;;;;;;5013450;28;20030;-61
2021/12/20 03:26:12;;;;;;;7.18;1.85;;;-1.00;99.90;;;;;;5012856;28;20087;-59
2021/12/20 03:28:38;;;;;;;6.50;1.83;;;-1.00;99.90;;;;;;5012532;28;20470;-61
2021/12/20 03:31:04;;;;;;;7.10;1.60;;;-1.00;99.90;;;;;;5013140;28;20579;-59
2021/12/20 03:33:29;;;;;;;8.80;1.90;;;-1.00;99.90;;;;;;5011329;28;20038;-59
2021/12/20 03:35:55;;;;;;;6.47;1.85;;;-1.00;99.90;;;;;;5012799;28;20087;-61
2021/12/20 03:38:20;;;;;;;4.38;1.58;;;-1.00;99.90;;;;;;5011351;28;20034;-61
2021/12/20 03:40:46;;;;;;;4.97;1.58;;;-1.10;99.90;;;;;;5012561;28;20056;-60
2021/12/20 03:43:13;;;;;;;6.22;1.58;;;-1.10;99.90;;;;;;5013068;28;20121;-60
2021/12/20 03:45:40;;;;;;;4.75;1.85;;;-1.10;99.90;;;;;;5011226;28;20506;-60
2021/12/20 03:48:06;;;;;;;6.53;1.73;;;-1.10;99.90;;;;;;5011741;28;20022;-61
2021/12/20 03:50:31;;;;;;;4.10;1.42;;;-1.20;99.90;;;;;;5012343;28;20548;-61
2021/12/20 03:52:57;;;;;;;6.93;1.50;;;-1.20;99.90;;;;;;5013299;28;20038;-60
2021/12/20 03:55:23;;;;;;;9.45;2.38;;;-1.20;99.90;;;;;;5012387;28;20047;-61
2021/12/20 03:57:48;;;;;;;2.92;1.50;;;-1.20;99.90;;;;;;5012997;28;20038;-61
2021/12/20 04:00:16;;;;;;;5.38;1.70;;;-1.20;99.90;;;;;;5012792;28;20037;-61
2021/12/20 04:02:45;;;;;;;9.55;1.85;;;-1.20;99.90;;;;;;5012184;28;20026;-60
2021/12/20 04:05:12;;;;;;;2.90;1.23;;;-1.20;99.90;;;;;;5011074;28;20518;-60
2021/12/20 04:07:38;;;;;;;2.65;1.40;;;-1.20;99.90;;;;;;5012013;28;20083;-58
2021/12/20 04:10:04;;;;;;;6.65;1.95;;;-1.10;99.90;;;;;;5010869;28;20041;-60
2021/12/20 04:12:30;;;;;;;4.50;1.02;;;-1.10;99.90;;;;;;5011595;28;20087;-59
2021/12/20 04:14:56;;;;;;;7.75;1.83;;;-1.10;99.90;;;;;;5012211;28;20042;-60
2021/12/20 04:17:21;;;;;;;5.18;1.95;;;-1.10;99.90;;;;;;5011873;28;20057;-60
2021/12/20 04:19:47;;;;;;;3.92;1.23;;;-1.10;99.90;;;;;;5011720;28;20042;-61
2021/12/20 04:22:15;;;;;;;3.88;1.40;;;-1.10;99.90;;;;;;5011952;28;20469;-61
2021/12/20 04:24:41;;;;;;;6.95;1.33;;;-1.10;99.90;;;;;;5011822;28;20021;-60
2021/12/20 04:27:07;;;;;;;5.28;1.73;;;-1.10;99.90;;;;;;5012062;28;20133;-60
2021/12/20 04:29:32;;;;;;;5.70;2.17;;;-1.10;99.90;;;;;;5010749;28;20037;-58
2021/12/20 04:31:59;;;;;;;4.30;1.42;;;-1.10;99.90;;;;;;5012232;28;20033;-61
2021/12/20 04:34:25;;;;;;;4.13;1.48;;;-1.10;99.90;;;;;;5011902;28;20029;-60
2021/12/20 04:36:51;;;;;;;5.75;1.45;;;-1.10;99.90;;;;;;5011094;28;20038;-58
2021/12/20 04:39:20;;;;;;;3.13;0.95;;;-1.20;99.90;;;;;;5009704;28;20030;-58
2021/12/20 04:41:45;;;;;;;9.52;2.08;;;-1.20;99.90;;;;;;5010502;28;20036;-61
2021/12/20 04:44:11;;;;;;;6.25;2.35;;;-1.20;99.90;;;;;;5012043;28;20105;-58
2021/12/20 04:46:37;;;;;;;6.43;1.50;;;-1.20;99.90;;;;;;5011787;28;20040;-59
2021/12/20 04:49:03;;;;;;;5.75;1.80;;;-1.10;99.90;;;;;;5011289;28;20099;-59
2021/12/20 04:51:29;;;;;;;3.35;0.93;;;-1.10;99.90;;;;;;5011732;28;20471;-59
2021/12/20 04:53:54;;;;;;;3.60;1.30;;;-1.10;99.90;;;;;;5011687;28;20025;-59
2021/12/20 04:56:20;;;;;;;3.33;1.35;;;-1.20;99.90;;;;;;5010986;28;20049;-59
2021/12/20 04:58:46;;;;;;;5.72;1.80;;;-1.20;99.90;;;;;;5011002;28;20040;-60
2021/12/20 05:01:11;;;;;;;7.90;1.45;;;-1.20;99.90;;;;;;5010755;28;20512;-60
2021/12/20 05:03:37;;;;;;;6.07;1.67;;;-1.20;99.90;;;;;;5010916;28;20097;-60
2021/12/20 05:06:03;;;;;;;4.90;1.58;;;-1.30;99.90;;;;;;5010930;28;20450;-60
2021/12/20 05:08:34;;;;;;;3.80;1.85;;;-1.30;99.90;;;;;;5011161;28;20038;-61
2021/12/20 05:11:03;;;;;;;6.55;1.95;;;-1.30;99.90;;;;;;5010595;28;20025;-60
2021/12/20 05:13:29;;;;;;;4.35;1.42;;;-1.30;99.90;;;;;;5010473;28;20030;-62
2021/12/20 05:15:54;;;;;;;2.60;1.33;;;-1.30;99.90;;;;;;5011110;28;20110;-60
2021/12/20 05:18:20;;;;;;;6.03;2.13;;;-1.30;99.90;;;;;;5010328;28;20433;-60
2021/12/20 05:20:46;;;;;;;4.53;1.55;;;-1.30;99.90;;;;;;5011102;28;20036;-60
2021/12/20 05:23:11;;;;;;;5.70;1.95;;;-1.30;99.90;;;;;;5010321;28;20033;-59
2021/12/20 05:25:37;;;;;;;5.88;1.73;;;-1.40;99.90;;;;;;5008546;28;20409;-58
2021/12/20 05:28:04;;;;;;;4.25;1.75;;;-1.40;99.90;;;;;;5009508;28;20401;-61
2021/12/20 05:30:30;;;;;;;6.00;1.70;;;-1.40;99.90;;;;;;5010426;28;20025;-59
2021/12/20 05:32:56;;;;;;;4.00;1.92;;;-1.40;99.90;;;;;;5009906;28;20045;-60
2021/12/20 05:35:22;;;;;;;1.83;1.17;;;-1.50;99.90;;;;;;5009922;28;20034;-61
2021/12/20 05:37:49;;;;;;;3.80;1.35;;;-1.50;99.90;;;;;;5009631;28;20034;-60
2021/12/20 05:40:16;;;;;;;3.60;1.23;;;-1.50;99.90;;;;;;5010250;28;20049;-61
2021/12/20 05:42:45;;;;;;;3.50;1.38;;;-1.50;99.90;;;;;;4995232;28;20076;-60
2021/12/20 05:45:11;;;;;;;3.83;1.65;;;-1.60;99.90;;;;;;5010847;28;20141;-60
2021/12/20 05:47:36;;;;;;;3.80;1.42;;;-1.60;99.90;;;;;;5009717;28;20494;-59
2021/12/20 05:50:03;;;;;;;5.72;1.98;;;-1.60;99.90;;;;;;5011225;28;20025;-60
2021/12/20 05:52:29;;;;;;;3.47;1.27;;;-1.60;99.90;;;;;;5010485;28;20484;-62
2021/12/20 05:54:54;;;;;;;4.45;1.30;;;-1.60;99.90;;;;;;5010046;28;20037;-62
2021/12/20 05:57:20;;;;;;;5.10;1.80;;;-1.70;99.90;;;;;;5010608;28;20037;-60
2021/12/20 05:59:45;;;;;;;4.60;1.65;;;-1.60;99.90;;;;;;5008528;28;20045;-61
2021/12/20 06:02:11;;;;;;;5.65;1.35;;;-1.60;99.90;;;;;;5010344;28;20122;-60
2021/12/20 06:04:36;;;;;;;7.25;1.30;;;-1.60;99.90;;;;;;5009899;28;20117;-60
2021/12/20 06:07:02;;;;;;;4.55;1.58;;;-1.60;99.90;;;;;;5010001;28;20042;-57
2021/12/20 06:09:28;;;;;;;7.07;1.90;;;-1.60;99.90;;;;;;5009383;28;20064;-62
2021/12/20 06:11:59;;;;;;;5.82;1.27;;;-1.60;99.90;;;;;;5007733;28;20030;-58
2021/12/20 06:14:25;;;;;;;4.80;1.70;;;-1.60;99.90;;;;;;5009621;28;20599;-61
2021/12/20 06:16:50;;;;;;;2.45;1.35;;;-1.60;99.90;;;;;;5010131;28;20030;-59
2021/12/20 06:19:16;;;;;;;3.25;1.52;;;-1.60;99.90;;;;;;5009550;28;20432;-60
2021/12/20 06:21:42;;;;;;;6.00;1.58;;;-1.60;99.90;;;;;;5008581;28;20026;-59
2021/12/20 06:24:07;;;;;;;1.20;1.10;;;-1.60;99.90;;;;;;5009563;28;20045;-60
2021/12/20 06:26:33;;;;;;;5.20;1.58;;;-1.70;99.90;;;;;;5009122;28;20025;-61
2021/12/20 06:28:58;;;;;;;3.28;1.20;;;-1.70;99.90;;;;;;5009600;28;20040;-59
2021/12/20 06:31:24;;;;;;;6.93;1.58;;;-1.70;99.90;;;;;;5010373;28;20045;-57
2021/12/20 06:33:49;;;;;;;5.43;1.27;;;-1.70;99.90;;;;;;5010141;28;20026;-60
2021/12/20 06:36:16;;;;;;;5.18;1.83;;;-1.80;99.90;;;;;;5009710;28;20502;-61
2021/12/20 06:38:43;;;;;;;4.72;2.00;;;-1.80;99.90;;;;;;5009442;28;20052;-61
2021/12/20 06:41:09;;;;;;;2.80;2.20;;;-1.80;99.90;;;;;;5009795;28;20408;-58
2021/12/20 06:43:35;;;;;;;4.38;2.05;;;-1.90;99.90;;;;;;5009940;28;20050;-60
2021/12/20 06:46:00;;;;;;;5.03;2.13;;;-1.90;99.90;;;;;;5009497;28;20034;-61
2021/12/20 06:48:26;;;;;;;6.45;2.10;;;-1.90;99.90;;;;;;5008482;28;20052;-61
2021/12/20 06:50:52;;;;;;;4.13;1.50;;;-1.90;99.90;;;;;;5009891;28;20088;-60
2021/12/20 06:53:17;;;;;;;3.80;1.85;;;-2.00;99.90;;;;;;5009450;28;20120;-61
2021/12/20 06:55:43;;;;;;;2.95;1.90;;;-2.00;99.90;;;;;;5009634;28;20049;-56
2021/12/20 06:58:09;;;;;;;6.32;1.90;;;-2.00;99.90;;;;;;5008661;28;20029;-60
2021/12/20 07:00:35;;;;;;;4.38;1.65;;;-2.00;99.90;;;;;;5008456;28;20252;-60
2021/12/20 07:03:01;;;;;;;4.75;1.88;;;-2.10;99.90;;;;;;5009079;28;20392;-59
2021/12/20 07:05:27;;;;;;;4.32;1.60;;;-2.10;99.90;;;;;;5008315;28;20054;-60
2021/12/20 07:07:53;;;;;;;2.05;1.20;;;-2.10;99.90;;;;;;5009008;28;20030;-60
2021/12/20 07:10:19;;;;;;;3.15;1.90;;;-2.20;99.90;;;;;;5009545;28;20041;-60
2021/12/20 07:12:44;;;;;;;2.28;1.55;;;-2.20;99.90;;;;;;5008108;28;20073;-60
2021/12/20 07:15:12;;;;;;;3.92;1.60;;;-2.20;99.90;;;;;;5009492;28;20063;-60
2021/12/20 07:17:40;;;;;;;5.75;2.28;;;-2.20;99.90;;;;;;5008760;28;20389;-60
2021/12/20 07:20:07;;;;;;;3.17;1.52;;;-2.30;99.90;;;;;;5009783;28;20068;-61
2021/12/20 07:22:33;;;;;;;3.38;1.35;;;-2.30;99.90;;;;;;5008186;28;20497;-60
2021/12/20 07:24:59;;;;;;;2.47;1.67;;;-2.30;99.90;;;;;;5010007;28;20026;-61
2021/12/20 07:27:25;;;;;;;3.83;1.70;;;-2.30;99.90;;;;;;5006775;28;20476;-60
2021/12/20 07:29:51;;;;;;;2.88;1.58;;;-2.40;99.90;;;;;;5008991;28;20069;-60
2021/12/20 07:32:17;;;;;;;5.43;1.80;;;-2.30;99.90;;;;;;5008302;28;20038;-60
2021/12/20 07:34:43;;;;;;;3.40;1.67;;;-2.40;99.90;;;;;;5009996;28;20041;-60
2021/12/20 07:37:08;;;;;;;4.47;2.30;;;-2.40;99.90;;;;;;5008769;28;20034;-59
2021/12/20 07:39:34;;;;;;;2.78;1.75;;;-2.40;99.90;;;;;;5008530;28;20034;-55
2021/12/20 07:42:00;;;;;;;7.47;2.40;;;-2.40;99.90;;;;;;5009352;28;20033;-58
2021/12/20 07:44:26;;;;;;;4.03;1.50;;;-2.40;99.90;;;;;;5008895;28;20404;-59
2021/12/20 07:46:52;;;;;;;4.57;2.25;;;-2.40;99.90;;;;;;5007794;28;20045;-57
2021/12/20 07:49:18;;;;;;;3.35;1.75;;;-2.40;99.90;;;;;;5008661;28;20093;-59
2021/12/20 07:51:44;;;;;;;6.35;2.00;;;-2.40;99.90;;;;;;5009465;28;20061;-57
2021/12/20 07:54:09;;;;;;;4.60;2.35;;;-2.40;99.90;;;;;;5009198;28;20026;-60
2021/12/20 07:56:35;;;;;;;4.70;2.10;;;-2.40;99.90;;;;;;5009672;28;20037;-56
2021/12/20 07:59:01;;;;;;;5.60;1.83;;;-2.40;99.90;;;;;;5008948;28;20030;-57
2021/12/20 08:01:27;;;;;;;6.57;2.30;;;-2.40;99.90;;;;;;5012899;28;20377;-54
2021/12/20 08:03:53;;;;;;;4.47;1.90;;;-2.40;99.90;;;;;;5012819;28;20041;-55
2021/12/20 08:06:20;;;;;;;6.05;2.10;;;-2.40;99.90;;;;;;5012728;28;20387;-59
2021/12/20 08:08:45;;;;;;;5.20;2.58;;;-2.40;99.90;;;;;;5012551;28;20100;-56
2021/12/20 08:11:11;;;;;;;4.95;2.53;;;-2.40;99.90;;;;;;5012782;28;20492;-54
2021/12/20 08:13:44;;;;;;;4.80;2.05;;;-2.40;99.90;;;;;;5012951;28;20057;-55
2021/12/20 08:16:14;;;;;;;3.03;1.50;;;-2.40;99.90;;;;;;5012468;28;20060;-58
2021/12/20 08:18:44;;;;;;;5.18;2.58;;;-2.40;99.90;;;;;;5012201;28;20080;-60
2021/12/20 08:21:10;;;;;;;4.85;2.35;;;-2.40;99.90;;;;;;5011598;28;20030;-59
2021/12/20 08:23:36;;;;;;;5.53;2.13;;;-2.40;99.90;;;;;;5012151;28;20036;-57
2021/12/20 08:26:03;;;;;;;6.88;2.35;;;-2.40;99.90;;;;;;5012336;28;20034;-58
2021/12/20 08:28:29;;;;;;;5.10;2.22;;;-2.40;99.90;;;;;;5012004;28;20411;-57
2021/12/20 08:30:55;;;;;;;5.95;2.13;;;-2.40;99.90;;;;;;5012107;28;20112;-59
2021/12/20 08:33:21;;;;;;;4.47;2.28;;;-2.40;99.90;;;;;;5010776;28;20091;-58
2021/12/20 08:35:50;;;;;;;5.10;2.15;;;-2.40;99.90;;;;;;4994266;28;20045;-54
2021/12/20 08:38:19;;;;;;;5.55;2.63;;;-2.40;99.90;;;;;;5001399;28;20030;-60
2021/12/20 08:40:46;;;;;;;6.82;2.67;;;-2.40;99.90;;;;;;5001915;28;20126;-60
2021/12/20 08:43:12;;;;;;;3.50;2.50;;;-2.40;99.90;;;;;;5011279;28;20026;-60
2021/12/20 08:45:38;;;;;;;3.42;1.60;;;-2.40;99.90;;;;;;5011108;28;20033;-59
2021/12/20 08:48:04;;;;;;;3.58;2.17;;;-2.40;99.90;;;;;;5011144;28;20136;-59
2021/12/20 08:50:29;;;;;;;3.70;2.60;;;-2.30;99.90;;;;;;5010855;28;20551;-60
2021/12/20 08:52:55;;;;;;;3.80;2.25;;;-2.30;99.90;;;;;;5011091;28;20566;-60
2021/12/20 08:55:22;;;;;;;3.95;2.42;;;-2.30;99.90;;;;;;5010791;28;20030;-61
2021/12/20 08:57:48;;;;;;;5.10;1.98;;;-2.30;99.90;;;;;;5010529;28;20029;-60
2021/12/20 09:00:27;;;;;;;3.58;2.65;;;-2.30;99.90;;;;;;5010289;28;20033;-60
2021/12/20 09:02:52;;;;;;;5.32;1.95;;;-2.20;99.90;;;;;;5009170;28;20369;-61
2021/12/20 09:05:19;;;;;;;4.60;2.05;;;-2.20;99.90;;;;;;5010848;28;20076;-60
2021/12/20 09:07:45;;;;;;;9.18;2.47;;;-2.10;99.90;;;;;;5007700;28;20503;-60
2021/12/20 09:10:13;;;;;;;4.63;2.35;;;-2.10;99.90;;;;;;5008974;28;20033;-58
2021/12/20 09:12:40;;;;;;;5.03;2.40;;;-2.10;99.90;;;;;;5009847;28;20700;-60
2021/12/20 09:15:07;;;;;;;5.55;2.20;;;-2.00;99.90;;;;;;5010634;28;20045;-60
2021/12/20 09:17:33;;;;;;;4.28;2.30;;;-2.00;99.90;;;;;;5002055;28;20029;-60
2021/12/20 09:19:58;;;;;;;6.65;1.67;;;-2.00;99.90;;;;;;4996354;28;20030;-60
2021/12/20 09:22:27;;;;;;;6.93;1.90;;;-1.90;99.90;;;;;;5007035;28;20231;-61
2021/12/20 09:24:54;;;;;;;4.07;2.17;;;-1.80;99.90;;;;;;5010908;28;20018;-61
2021/12/20 09:27:20;;;;;;;3.15;1.98;;;-1.80;99.90;;;;;;5010306;28;20440;-61
2021/12/20 09:29:45;;;;;;;3.05;1.85;;;-1.70;99.90;;;;;;5010846;28;20038;-60
2021/12/20 09:32:11;;;;;;;3.35;2.08;;;-1.60;99.90;;;;;;5011273;28;20200;-59
2021/12/20 09:34:37;;;;;;;3.83;2.42;;;-1.50;99.90;;;;;;5010956;28;20042;-59
2021/12/20 09:37:06;;;;;;;8.00;2.53;;;-1.40;99.90;;;;;;5010332;28;20048;-60
2021/12/20 09:39:36;;;;;;;5.65;2.40;;;-1.30;99.90;;;;;;5009944;28;20040;-59
2021/12/20 09:42:03;;;;;;;3.25;2.17;;;-1.20;99.90;;;;;;5011278;28;20022;-60
2021/12/20 09:44:29;;;;;;;7.50;2.38;;;-1.10;99.90;;;;;;5010847;28;20416;-60
2021/12/20 09:46:56;;;;;;;5.97;2.97;;;-1.00;99.90;;;;;;5010260;28;20105;-61
2021/12/20 09:49:22;;;;;;;6.03;2.50;;;-0.90;99.90;;;;;;5010318;28;20399;-60
2021/12/20 09:51:49;;;;;;;4.82;2.22;;;-0.80;99.90;;;;;;5010634;28;20026;-61
2021/12/20 09:54:15;;;;;;;4.38;2.35;;;-0.70;99.90;;;;;;5010472;28;20076;-57
2021/12/20 09:56:43;;;;;;;5.88;2.50;;;-0.60;99.90;;;;;;5010835;28;20022;-58
2021/12/20 09:59:17;;;;;;;5.55;2.60;;;-0.50;99.90;;;;;;5010129;28;20099;-59
2021/12/20 10:01:44;;;;;;;4.75;2.28;;;-0.50;99.90;;;;;;5010448;28;20121;-60
2021/12/20 10:04:10;;;;;;;9.18;2.78;;;-0.30;99.90;;;;;;5009808;28;20060;-61
2021/12/20 10:06:36;;;;;;;4.90;2.55;;;-0.20;99.90;;;;;;5010325;28;20022;-60
2021/12/20 10:09:11;;;;;;;5.80;2.90;;;-0.10;99.90;;;;;;5007993;28;20076;-60
2021/12/20 10:11:38;;;;;;;3.33;2.13;;;0.00;99.90;;;;;;5010571;28;20499;-61
2021/12/20 10:14:09;;;;;;;5.97;2.35;;;0.10;99.90;;;;;;5010269;28;20476;-58
2021/12/20 10:16:36;;;;;;;3.08;1.75;;;0.20;99.90;;;;;;5015934;28;20034;-61
2021/12/20 10:19:04;;;;;;;3.05;2.03;;;0.30;99.90;;;;;;5010128;28;20400;-61
2021/12/20 10:21:45;;;;;;;3.58;2.50;;;0.40;99.90;;;;;;5010298;28;20034;-60
2021/12/20 10:24:31;;;;;;;4.47;3.22;;;0.40;99.90;;;;;;5010538;28;20084;-58
2021/12/20 10:26:56;;;;;;;3.17;2.15;;;0.60;99.90;;;;;;5017558;28;20053;-60
2021/12/20 10:29:23;;;;;;;5.75;2.88;;;0.60;99.90;;;;;;5010019;28;20046;-55
2021/12/20 10:31:50;;;;;;;7.05;2.92;;;0.70;99.90;;;;;;5010222;28;20118;-59
2021/12/20 10:34:19;;;;;;;8.45;2.92;;;0.80;99.90;;;;;;5017542;28;20036;-59
2021/12/20 10:36:55;;;;;;;3.90;2.17;;;0.80;99.90;;;;;;5029632;28;20029;-61
2021/12/20 10:39:35;;;;;;;;;;;0.90;99.90;;;;;;5022536;28;20088;-60
2021/12/20 10:42:24;;;;;;;4.65;1.92;;;0.90;99.90;;;;;;5011061;28;20203;-60
2021/12/20 10:45:08;;;;;;;5.70;2.28;;;1.00;99.90;;;;;;5010119;28;20032;-60
2021/12/20 10:47:34;;;;;;;5.55;2.40;;;1.00;99.90;;;;;;5016182;28;20029;-58
2021/12/20 10:50:20;;;;;;;6.38;2.42;;;1.10;99.90;;;;;;5029275;28;20523;-59
2021/12/20 10:52:45;;;;;;;5.35;2.00;;;1.10;99.90;;;;;;5029594;28;20029;-56
2021/12/20 10:55:11;;;;;;;6.32;2.20;;;1.10;99.90;;;;;;5028083;28;20030;-57
2021/12/20 10:57:37;;;;;;;4.03;1.92;;;1.10;99.90;;;;;;5028990;28;20518;-62
2021/12/20 11:00:22;;;;;;;3.78;1.88;;;1.20;99.90;;;;;;5012162;28;20033;-58
2021/12/20 11:03:21;;;;;;;3.72;1.88;;;1.20;99.90;;;;;;5009909;28;20428;-60
2021/12/20 11:11:13;;;;;;;3.38;1.65;;;1.30;99.90;;;;;;5010027;28;20064;-58
2021/12/20 11:13:39;;;;;;;7.60;2.17;;;1.30;99.90;;;;;;5010521;28;20026;-55
2021/12/20 11:16:28;;;;;;;4.85;1.70;;;1.30;99.90;;;;;;5009941;28;20443;-60
2021/12/20 11:19:06;;;;;;;2.10;1.45;;;1.40;99.90;;;;;;5010873;28;20040;-55
2021/12/20 11:21:32;;;;;;;4.18;1.73;;;1.40;99.90;;;;;;5009782;28;20030;-57
2021/12/20 11:23:59;;;;;;;6.38;2.13;;;1.40;99.90;;;;;;5009739;28;20038;-57
2021/12/20 11:26:27;;;;;;;5.15;2.00;;;1.40;99.90;;;;;;5009617;28;20407;-56
2021/12/20 11:28:55;;;;;;;4.57;2.15;;;1.40;99.90;;;;;;5010455;28;20353;-56
2021/12/20 11:31:20;;;;;;;3.25;1.50;;;1.40;99.90;;;;;;5009664;28;20418;-60
2021/12/20 11:33:46;;;;;;;2.90;1.73;;;1.50;99.90;;;;;;5008746;28;20133;-60
2021/12/20 11:36:12;;;;;;;2.58;1.83;;;1.50;99.90;;;;;;5004502;28;20113;-60
2021/12/20 11:38:39;;;;;;;4.30;1.75;;;1.50;99.90;;;;;;5014291;28;20021;-57
2021/12/20 11:41:06;;;;;;;4.32;2.10;;;1.60;99.90;;;;;;5013570;28;20084;-59
2021/12/20 11:43:32;;;;;;;5.00;1.75;;;1.50;99.90;;;;;;5026407;28;20029;-57
2021/12/20 11:45:59;;;;;;;3.15;1.63;;;1.50;99.90;;;;;;5033251;28;20029;-57
2021/12/20 11:48:28;;;;;;;3.70;2.00;;;1.60;99.90;;;;;;5031265;28;20492;-60
2021/12/20 11:50:59;;;;;;;11.30;2.15;;;1.60;99.90;;;;;;5033061;28;20037;-56
2021/12/20 11:53:24;;;;;;;4.88;1.58;;;1.60;99.90;;;;;;5020847;28;20041;-57
2021/12/20 11:55:52;;;;;;;2.38;1.60;;;1.60;99.90;;;;;;5013307;28;20022;-59
2021/12/20 11:58:25;;;;;;;2.95;2.10;;;1.70;99.90;;;;;;5013482;28;20030;-63
2021/12/20 12:00:56;;;;;;;2.72;1.80;;;1.60;99.90;;;;;;5012620;28;20026;-59
2021/12/20 12:03:25;;;;;;;6.93;2.10;;;1.70;99.90;;;;;;5009294;28;20285;-55
2021/12/20 12:06:01;;;;;;;4.22;1.85;;;1.80;99.90;;;;;;5012252;28;20459;-57
2021/12/20 12:08:35;;;;;;;2.65;1.80;;;1.80;99.90;;;;;;5011063;28;20040;-58
2021/12/20 12:11:09;;;;;;;1.83;1.30;;;1.90;99.90;;;;;;5013019;28;20030;-60
2021/12/20 12:13:49;;;;;;;2.47;1.23;;;1.90;99.90;;;;;;5012267;28;20033;-57
2021/12/20 12:16:37;;;;;;;2.85;1.77;;;2.00;99.90;;;;;;5012674;28;20025;-53
2021/12/20 12:19:03;;;;;;;7.30;2.10;;;2.10;99.90;;;;;;5012130;28;20061;-56
2021/12/20 12:21:31;;;;;;;5.75;1.88;;;2.10;99.90;;;;;;5012549;28;20500;-58
2021/12/20 12:24:02;;;;;;;4.50;1.98;;;2.10;99.90;;;;;;5013025;28;20022;-58
2021/12/20 12:26:49;;;;;;;4.18;2.13;;;2.10;99.90;;;;;;5010834;28;20037;-59
2021/12/20 12:29:18;;;;;;;3.28;1.92;;;2.10;99.90;;;;;;5011909;28;20025;-59
2021/12/20 12:32:00;;;;;;;10.48;3.05;;;2.10;99.90;;;;;;5012312;28;20022;-60
2021/12/20 12:34:47;;;;;;;4.57;1.75;;;2.10;99.90;;;;;;5012483;28;20370;-59
2021/12/20 12:37:25;;;;;;;2.55;1.88;;;2.10;99.90;;;;;;5010824;28;20506;-56
2021/12/20 12:39:51;;;;;;;5.70;1.88;;;2.10;99.90;;;;;;5011981;28;20088;-60
2021/12/20 12:42:17;;;;;;;4.70;2.35;;;2.00;99.90;;;;;;5009484;28;20026;-62
2021/12/20 12:44:51;;;;;;;4.32;2.38;;;2.10;99.90;;;;;;4992314;28;20154;-58
2021/12/20 12:47:34;;;;;;;5.00;2.13;;;2.00;99.90;;;;;;4997515;28;20018;-56
2021/12/20 12:50:00;;;;;;;4.07;2.13;;;2.00;99.90;;;;;;5004511;28;20069;-59
2021/12/20 12:52:26;;;;;;;3.63;2.08;;;2.00;99.90;;;;;;5011333;28;20388;-60
2021/12/20 12:54:57;;;;;;;4.18;2.08;;;2.00;99.90;;;;;;5009969;28;20045;-62
2021/12/20 12:57:23;;;;;;;4.43;1.50;;;2.00;99.90;;;;;;5011877;28;20076;-62
2021/12/20 12:59:54;;;;;;;3.25;1.75;;;2.00;99.90;;;;;;5011257;28;20511;-61
2021/12/20 13:02:22;;;;;;;4.72;1.55;;;2.00;99.90;;;;;;5013045;28;20029;-59
2021/12/20 13:05:03;;;;;;;2.65;1.70;;;2.00;99.90;;;;;;5011393;28;20034;-60
2021/12/20 13:07:35;;;;;;;5.13;2.08;;;2.10;99.90;;;;;;5018380;28;20117;-63